Time;durP1;ratioP1;P1;durP2;ratioP2;P2;SDS_P1;SDS_P2;PMS_P1;PMS_P2;Temp;Humidity;BMP_temperature;BMP_pressure;BME280_temperature;BME280_humidity;BME280_pressure;Samples;Min_cycle;Max_cycle;Signal;HPM_P1;HPM_P2
2022/10/03 00:00:12;;;;;;;938.40;874.83;;;;;;;13.75;nan;101308.56;691926;28;138190;-61
2022/10/03 00:00:38;;;;;;;928.45;865.17;;;;;;;13.73;nan;101303.31;681136;28;134363;-61
2022/10/03 00:01:22;;;;;;;931.00;867.67;;;;;;;13.71;nan;101291.78;690404;28;99645;-60
2022/10/03 00:02:06;;;;;;;921.20;858.22;;;;;;;13.76;nan;101299.38;689645;28;137661;-60
2022/10/03 00:02:35;;;;;;;881.08;819.40;;;;;;;13.74;nan;101304.16;686226;28;157390;-61
2022/10/03 00:03:20;;;;;;;855.72;794.90;;;;;;;13.75;nan;101300.44;689846;28;137432;-61
2022/10/03 00:03:48;;;;;;;893.83;831.83;;;;;;;13.75;nan;101306.69;689527;28;137524;-61
2022/10/03 00:04:21;;;;;;;916.28;853.55;;;;;;;13.76;nan;101307.53;688742;28;159486;-61
2022/10/03 00:04:59;;;;;;;934.42;871.00;;;;;;;13.75;nan;101305.84;689680;28;137415;-60
2022/10/03 00:05:35;;;;;;;929.60;866.28;;;;;;;13.73;nan;101308.75;689482;28;137776;-61
2022/10/03 00:06:03;;;;;;;916.97;854.15;;;;;;;13.75;nan;101312.13;689528;28;137755;-59
2022/10/03 00:06:32;;;;;;;922.97;859.95;;;;;;;13.73;nan;101310.59;689509;28;137951;-61
2022/10/03 00:07:02;;;;;;;922.28;859.40;;;;;;;13.74;nan;101315.03;671632;28;137957;-62
2022/10/03 00:07:36;;;;;;;944.85;880.65;;;;;;;13.76;nan;101312.97;691132;28;156454;-60
2022/10/03 00:08:07;;;;;;;926.92;863.78;;;;;;;13.77;nan;101311.94;691976;28;136018;-60
2022/10/03 00:08:54;;;;;;;930.22;866.97;;;;;;;13.74;nan;101301.44;691906;28;136172;-60
2022/10/03 00:09:28;;;;;;;868.83;807.33;;;;;;;13.75;nan;101308.56;686806;28;137543;-61
2022/10/03 00:10:01;;;;;;;883.80;821.92;;;;;;;13.74;nan;101305.00;686651;28;137859;-61
2022/10/03 00:10:31;;;;;;;892.78;830.58;;;;;;;13.74;nan;101310.44;686596;28;137530;-62
2022/10/03 00:11:01;;;;;;;914.13;851.25;;;;;;;13.76;nan;101318.38;686000;28;160957;-60
2022/10/03 00:11:36;;;;;;;919.10;856.03;;;;;;;13.75;nan;101312.13;686670;28;138467;-61
2022/10/03 00:12:08;;;;;;;931.55;867.95;;;;;;;13.72;nan;101314.38;661507;28;135740;-62
2022/10/03 00:12:46;;;;;;;920.47;857.40;;;;;;;13.76;nan;101315.66;689066;28;61175;-62
2022/10/03 00:13:18;;;;;;;895.88;833.50;;;;;;;13.76;nan;101311.09;689230;28;137462;-62
2022/10/03 00:13:46;;;;;;;911.78;849.08;;;;;;;13.76;nan;101321.97;688525;28;160722;-61
2022/10/03 00:14:14;;;;;;;915.30;852.45;;;;;;;13.78;nan;101313.63;691167;28;134650;-61
2022/10/03 00:14:43;;;;;;;929.45;866.22;;;;;;;13.78;nan;101321.78;691947;28;137810;-62
2022/10/03 00:15:09;;;;;;;892.28;830.33;;;;;;;13.79;nan;101315.31;688625;28;161146;-62
2022/10/03 00:15:36;;;;;;;881.00;819.28;;;;;;;13.79;nan;101318.03;689325;28;138150;-62
2022/10/03 00:16:08;;;;;;;876.58;814.83;;;;;;;13.79;nan;101320.72;688469;28;138798;-61
2022/10/03 00:16:37;;;;;;;891.00;828.88;;;;;;;13.78;nan;101316.34;687420;28;160591;-62
2022/10/03 00:17:03;;;;;;;907.97;845.05;;;;;;;13.79;nan;101321.59;664012;28;137270;-62
2022/10/03 00:17:27;;;;;;;916.53;853.28;;;;;;;13.78;nan;101325.31;691863;28;136279;-62
2022/10/03 00:17:57;;;;;;;896.30;834.08;;;;;;;13.79;nan;101318.03;693808;28;92283;-61
2022/10/03 00:18:29;;;;;;;891.67;829.45;;;;;;;13.79;nan;101318.88;692041;28;138084;-62
2022/10/03 00:18:59;;;;;;;892.15;829.97;;;;;;;13.80;nan;101309.69;688954;28;136019;-60
2022/10/03 00:19:27;;;;;;;878.30;816.50;;;;;;;13.81;nan;101318.69;686688;28;137706;-61
2022/10/03 00:19:55;;;;;;;919.40;856.33;;;;;;;13.81;nan;101315.97;686908;28;137582;-62
2022/10/03 00:20:38;;;;;;;928.03;864.75;;;;;;;13.80;nan;101323.25;688462;28;136306;-61
2022/10/03 00:21:13;;;;;;;935.88;872.35;;;;;;;13.81;nan;101316.81;689483;28;137662;-60
2022/10/03 00:21:43;;;;;;;919.78;856.63;;;;;;;13.82;nan;101323.94;689429;28;138102;-61
2022/10/03 00:22:17;;;;;;;899.20;836.80;;;;;;;13.85;nan;101325.44;663373;28;136172;-60
2022/10/03 00:22:45;;;;;;;891.22;828.90;;;;;;;13.82;nan;101320.38;689291;28;137692;-61
2022/10/03 00:23:10;;;;;;;885.22;823.20;;;;;;;13.85;nan;101323.53;686626;28;137697;-61
2022/10/03 00:23:39;;;;;;;896.70;834.30;;;;;;;13.86;nan;101322.53;687489;28;115006;-61
2022/10/03 00:24:10;;;;;;;887.38;825.38;;;;;;;13.87;nan;101326.06;686815;28;138196;-61
2022/10/03 00:24:40;;;;;;;920.47;857.38;;;;;;;13.87;nan;101332.38;688401;28;137760;-61
2022/10/03 00:25:16;;;;;;;938.63;875.03;;;;;;;13.88;nan;101325.91;688756;28;160637;-61
2022/10/03 00:25:42;;;;;;;891.97;829.95;;;;;;;13.88;nan;101325.91;688769;28;160695;-61
2022/10/03 00:26:52;;;;;;;925.22;862.35;;;;;;;13.87;nan;101326.94;689443;28;137688;-60
2022/10/03 00:27:17;;;;;;;895.85;833.20;;;;;;;13.90;nan;101328.44;687882;28;157634;-61
2022/10/03 00:27:42;;;;;;;872.25;810.55;;;;;;;13.90;nan;101328.44;689432;28;138148;-61
2022/10/03 00:28:12;;;;;;;878.03;816.30;;;;;;;13.91;nan;101338.28;691154;28;85051;-61
2022/10/03 00:28:51;;;;;;;888.38;826.22;;;;;;;13.88;nan;101323.19;689175;28;137504;-62
2022/10/03 00:29:34;;;;;;;909.55;846.92;;;;;;;13.88;nan;101328.59;689247;28;135620;-61
2022/10/03 00:30:03;;;;;;;894.88;832.67;;;;;;;13.90;nan;101335.75;689510;28;137508;-59
2022/10/03 00:30:25;;;;;;;928.92;865.60;;;;;;;13.89;nan;101334.91;691694;28;68978;-61
2022/10/03 00:31:04;;;;;;;914.75;851.88;;;;;;;13.90;nan;101333.03;692642;28;46589;-62
2022/10/03 00:31:38;;;;;;;898.85;836.45;;;;;;;13.88;nan;101333.22;689400;28;138902;-62
2022/10/03 00:32:07;;;;;;;924.67;861.53;;;;;;;13.90;nan;101330.31;688665;28;136004;-61
2022/10/03 00:32:42;;;;;;;902.67;840.05;;;;;;;13.88;nan;101333.22;689158;28;137535;-61
2022/10/03 00:33:13;;;;;;;863.58;802.35;;;;;;;13.90;nan;101339.28;689561;28;135639;-61
2022/10/03 00:33:42;;;;;;;888.60;826.50;;;;;;;13.88;nan;101336.75;689560;28;137844;-61
2022/10/03 00:34:11;;;;;;;881.53;819.67;;;;;;;13.89;nan;101340.34;688173;28;160896;-61
2022/10/03 00:34:44;;;;;;;911.40;848.78;;;;;;;13.88;nan;101331.31;689266;28;137834;-58
2022/10/03 00:35:17;;;;;;;920.83;857.88;;;;;;;13.89;nan;101337.63;689303;28;136021;-60
2022/10/03 00:35:50;;;;;;;945.75;882.05;;;;;;;13.90;nan;101333.03;689573;28;137626;-62
2022/10/03 00:36:19;;;;;;;938.83;875.38;;;;;;;13.86;nan;101327.97;689621;28;137582;-61
2022/10/03 00:36:48;;;;;;;893.50;831.53;;;;;;;13.90;nan;101335.75;689567;28;137701;-60
2022/10/03 00:37:18;;;;;;;877.33;815.45;;;;;;;13.86;nan;101329.84;690189;28;139730;-59
2022/10/03 00:37:48;;;;;;;876.88;815.28;;;;;;;13.87;nan;101334.22;692172;28;138138;-60
2022/10/03 00:38:26;;;;;;;891.38;829.38;;;;;;;13.87;nan;101334.22;692341;28;138486;-62
2022/10/03 00:39:17;;;;;;;859.35;798.17;;;;;;;13.87;nan;101342.38;691898;28;137947;-60
2022/10/03 00:39:48;;;;;;;908.60;845.97;;;;;;;13.87;nan;101337.81;688505;28;158911;-60
2022/10/03 00:41:01;;;;;;;933.80;870.50;;;;;;;13.86;nan;101336.09;692295;28;61662;-60
2022/10/03 00:41:32;;;;;;;883.80;821.97;;;;;;;13.89;nan;101337.63;677385;29;161363;-62
2022/10/03 00:42:29;;;;;;;883.78;821.75;;;;;;;13.91;nan;101334.72;660185;28;137419;-61
2022/10/03 00:43:26;;;;;;;896.08;833.75;;;;;;;13.92;nan;101339.09;672994;29;137231;-61
2022/10/03 00:44:27;;;;;;;921.17;858.15;;;;;;;13.91;nan;101338.28;689147;28;137777;-61
2022/10/03 00:45:34;;;;;;;883.83;821.95;;;;;;;13.91;nan;101338.28;689469;28;137835;-61
2022/10/03 00:46:07;;;;;;;929.83;866.35;;;;;;;13.91;nan;101337.44;682738;28;137529;-61
2022/10/03 00:46:49;;;;;;;940.05;876.42;;;;;;;13.93;nan;101338.91;683742;28;137510;-61
2022/10/03 00:47:23;;;;;;;933.90;870.15;;;;;;;13.94;nan;101342.50;684505;28;157052;-60
2022/10/03 00:48:07;;;;;;;879.63;817.72;;;;;;;13.92;nan;101337.25;686407;28;135789;-60
2022/10/03 00:48:45;;;;;;;913.83;851.03;;;;;;;13.94;nan;101345.22;683210;28;137412;-61
2022/10/03 00:49:49;;;;;;;916.80;854.00;;;;;;;13.94;nan;101337.91;692315;28;136856;-61
2022/10/03 00:50:22;;;;;;;942.00;878.38;;;;;;;13.93;nan;101340.81;692215;28;138174;-61
2022/10/03 00:51:04;;;;;;;931.22;868.00;;;;;;;13.92;nan;101345.41;692286;28;137442;-68
2022/10/03 00:51:44;;;;;;;890.30;828.20;;;;;;;13.91;nan;101340.97;694903;28;60825;-62
2022/10/03 00:52:38;;;;;;;895.40;833.05;;;;;;;13.91;nan;101340.16;689224;28;137561;-62
2022/10/03 00:53:23;;;;;;;930.25;866.85;;;;;;;13.92;nan;101348.13;689404;28;137596;-61
2022/10/03 00:53:55;;;;;;;907.00;844.28;;;;;;;13.91;nan;101349.13;689634;28;137771;-61
2022/10/03 00:54:30;;;;;;;894.38;832.13;;;;;;;13.92;nan;101345.41;689980;28;116039;-62
2022/10/03 00:55:02;;;;;;;873.08;811.50;;;;;;;13.92;nan;101345.41;689306;28;137734;-60
2022/10/03 00:55:33;;;;;;;879.60;817.83;;;;;;;13.91;nan;101345.59;689245;28;137323;-61
2022/10/03 00:56:02;;;;;;;919.97;856.88;;;;;;;13.93;nan;101347.06;686598;28;137696;-60
2022/10/03 00:56:44;;;;;;;925.05;861.78;;;;;;;13.94;nan;101347.94;686739;28;137832;-61
2022/10/03 00:57:20;;;;;;;938.22;874.25;;;;;;;13.92;nan;101339.97;662352;28;121046;-61
2022/10/03 00:57:56;;;;;;;909.33;846.55;;;;;;;13.92;nan;101341.81;689145;28;138754;-60
2022/10/03 00:58:30;;;;;;;894.58;832.28;;;;;;;13.95;nan;101339.59;689112;28;136099;-60
2022/10/03 00:59:10;;;;;;;888.78;826.53;;;;;;;13.97;nan;101340.25;689513;28;123097;-61
2022/10/03 00:59:42;;;;;;;900.13;837.67;;;;;;;13.98;nan;101343.78;687588;28;112784;-61
2022/10/03 01:00:16;;;;;;;917.05;854.05;;;;;;;13.95;nan;101344.16;687822;28;158971;-60
2022/10/03 01:00:38;;;;;;;928.92;865.42;;;;;;;13.97;nan;101342.13;688704;28;137506;-61
2022/10/03 01:01:20;;;;;;;920.13;856.97;;;;;;;13.96;nan;101335.84;692138;28;46840;-61
2022/10/03 01:01:44;;;;;;;882.28;820.17;;;;;;;13.96;nan;101343.97;686402;28;137600;-62
2022/10/03 01:02:36;;;;;;;872.20;810.42;;;;;;;13.99;nan;101332.75;688521;28;92372;-61
2022/10/03 01:03:11;;;;;;;880.70;818.92;;;;;;;13.97;nan;101345.69;688721;28;137489;-61
2022/10/03 01:03:41;;;;;;;893.33;831.33;;;;;;;14.00;nan;101337.16;688950;28;137515;-60
2022/10/03 01:04:19;;;;;;;897.60;835.42;;;;;;;14.00;nan;101342.59;688202;28;160576;-60
2022/10/03 01:04:49;;;;;;;887.92;825.90;;;;;;;13.99;nan;101343.63;688889;28;138560;-61
2022/10/03 01:05:16;;;;;;;897.22;834.85;;;;;;;14.00;nan;101331.72;688231;28;160128;-61
2022/10/03 01:05:47;;;;;;;892.25;830.05;;;;;;;14.01;nan;101335.28;689142;28;138005;-61
2022/10/03 01:06:19;;;;;;;883.60;821.72;;;;;;;14.02;nan;101342.41;689134;28;136054;-61
2022/10/03 01:06:45;;;;;;;894.75;832.40;;;;;;;14.02;nan;101340.53;688997;28;138259;-61
2022/10/03 01:07:17;;;;;;;897.03;834.35;;;;;;;14.04;nan;101340.34;687782;28;138136;-61
2022/10/03 01:08:03;;;;;;;920.60;857.53;;;;;;;14.03;nan;101336.78;689108;28;135970;-61
2022/10/03 01:08:53;;;;;;;894.33;832.05;;;;;;;14.03;nan;101339.50;688792;28;137026;-60
2022/10/03 01:09:22;;;;;;;924.10;861.03;;;;;;;14.03;nan;101349.53;689116;28;137394;-60
2022/10/03 01:09:55;;;;;;;927.42;864.22;;;;;;;14.03;nan;101338.69;689125;28;137629;-60
2022/10/03 01:10:21;;;;;;;875.80;814.20;;;;;;;14.02;nan;101342.41;688996;28;137657;-61
2022/10/03 01:10:50;;;;;;;882.40;820.60;;;;;;;14.02;nan;101334.25;688940;28;137832;-60
2022/10/03 01:11:23;;;;;;;861.90;800.67;;;;;;;13.98;nan;101330.22;688445;28;159130;-61
2022/10/03 01:11:56;;;;;;;894.83;832.63;;;;;;;14.00;nan;101344.47;689022;28;135819;-59
2022/10/03 01:12:47;;;;;;;914.85;852.00;;;;;;;14.01;nan;101341.56;687757;28;156281;-60
2022/10/03 01:13:20;;;;;;;926.25;863.05;;;;;;;14.01;nan;101335.28;689058;28;137273;-61
2022/10/03 01:13:51;;;;;;;918.53;855.53;;;;;;;14.01;nan;101341.56;689031;28;137692;-60
2022/10/03 01:14:23;;;;;;;880.83;818.92;;;;;;;14.01;nan;101340.72;689020;28;136118;-59
2022/10/03 01:14:54;;;;;;;910.22;847.47;;;;;;;14.02;nan;101340.53;688986;28;137656;-61
2022/10/03 01:15:24;;;;;;;925.03;861.78;;;;;;;14.02;nan;101342.41;689070;28;135857;-60
2022/10/03 01:15:52;;;;;;;929.83;866.47;;;;;;;14.02;nan;101343.25;688996;28;137652;-61
2022/10/03 01:16:18;;;;;;;901.50;839.13;;;;;;;14.02;nan;101343.25;689105;28;136242;-59
2022/10/03 01:16:43;;;;;;;871.75;810.40;;;;;;;14.03;nan;101339.50;686625;28;136372;-61
2022/10/03 01:17:12;;;;;;;898.15;835.70;;;;;;;14.04;nan;101343.06;685831;28;114683;-60
2022/10/03 01:17:46;;;;;;;893.60;831.38;;;;;;;14.03;nan;101339.50;690939;28;58933;-60
2022/10/03 01:18:15;;;;;;;884.60;822.63;;;;;;;14.03;nan;101349.53;688953;28;138670;-61
2022/10/03 01:18:44;;;;;;;896.03;833.67;;;;;;;14.04;nan;101348.50;688089;28;161733;-60
2022/10/03 01:19:22;;;;;;;895.67;833.35;;;;;;;14.03;nan;101346.81;688735;28;137869;-60
2022/10/03 01:20:00;;;;;;;897.33;834.97;;;;;;;14.03;nan;101347.66;689022;28;138339;-61
2022/10/03 01:20:28;;;;;;;926.80;863.50;;;;;;;14.03;nan;101335.97;688889;28;137336;-59
2022/10/03 01:20:58;;;;;;;924.58;861.47;;;;;;;14.02;nan;101354.09;688995;28;138000;-61
2022/10/03 01:21:27;;;;;;;934.58;870.92;;;;;;;14.02;nan;101354.09;688782;28;137809;-61
2022/10/03 01:21:57;;;;;;;885.15;823.25;;;;;;;14.03;nan;101352.25;688987;28;137762;-61
2022/10/03 01:22:37;;;;;;;920.47;857.38;;;;;;;14.02;nan;101351.41;687554;28;157365;-61
2022/10/03 01:23:22;;;;;;;900.90;838.42;;;;;;;14.03;nan;101353.09;688837;28;137326;-60
2022/10/03 01:24:32;;;;;;;890.20;828.17;;;;;;;14.01;nan;101357.88;689048;28;137384;-60
2022/10/03 01:24:57;;;;;;;913.30;850.47;;;;;;;14.00;nan;101356.19;680332;28;137634;-61
2022/10/03 01:25:25;;;;;;;889.20;827.20;;;;;;;14.00;nan;101352.63;681218;28;114866;-62
2022/10/03 01:25:51;;;;;;;898.78;836.47;;;;;;;14.01;nan;101355.16;684575;28;136253;-60
2022/10/03 01:26:26;;;;;;;881.95;820.10;;;;;;;14.00;nan;101348.03;680544;28;137442;-61
2022/10/03 01:26:58;;;;;;;888.33;826.33;;;;;;;14.01;nan;101355.16;679699;28;158912;-61
2022/10/03 01:27:27;;;;;;;883.55;821.38;;;;;;;14.01;nan;101360.59;681526;28;158070;-62
2022/10/03 01:30:25;;;;;;;878.25;816.78;;;;;;;14.06;nan;101360.03;688182;28;160583;-60
2022/10/03 01:30:49;;;;;;;878.72;817.03;;;;;;;14.08;nan;101357.13;688851;28;135964;-61
2022/10/03 01:31:13;;;;;;;873.85;812.35;;;;;;;14.06;nan;101350.00;690559;28;92426;-61
2022/10/03 01:31:41;;;;;;;889.70;827.53;;;;;;;14.06;nan;101354.59;690330;28;92123;-60
2022/10/03 01:32:06;;;;;;;887.75;825.58;;;;;;;14.04;nan;101353.94;663176;28;137552;-60
2022/10/03 01:32:33;;;;;;;889.65;827.50;;;;;;;14.05;nan;101348.31;692064;28;114645;-60
2022/10/03 01:32:58;;;;;;;894.92;832.63;;;;;;;14.04;nan;101349.34;691291;28;138687;-59
2022/10/03 01:33:26;;;;;;;909.28;846.65;;;;;;;14.04;nan;101351.22;692178;28;115553;-60
2022/10/03 01:33:54;;;;;;;921.58;858.60;;;;;;;14.04;nan;101345.78;691264;28;137978;-61
2022/10/03 01:34:21;;;;;;;900.38;837.97;;;;;;;14.03;nan;101347.66;688523;28;137549;-62
2022/10/03 01:34:46;;;;;;;881.78;820.08;;;;;;;14.03;nan;101355.81;688871;28;138042;-60
2022/10/03 01:35:18;;;;;;;878.55;816.92;;;;;;;14.03;nan;101352.25;689581;28;115356;-60
2022/10/03 01:35:52;;;;;;;889.15;827.05;;;;;;;14.02;nan;101359.53;691400;28;60375;-61
2022/10/03 01:36:19;;;;;;;886.78;824.85;;;;;;;14.03;nan;101349.53;689030;28;136289;-61
2022/10/03 01:36:48;;;;;;;885.20;823.25;;;;;;;14.04;nan;101359.34;688296;28;159264;-60
2022/10/03 01:37:16;;;;;;;898.72;836.08;;;;;;;14.03;nan;101361.25;687601;28;137334;-62
2022/10/03 01:37:44;;;;;;;920.10;857.00;;;;;;;14.04;nan;101356.63;688953;28;137984;-61
2022/10/03 01:38:18;;;;;;;926.70;863.47;;;;;;;14.03;nan;101355.81;691050;28;160785;-59
2022/10/03 01:38:44;;;;;;;886.33;824.15;;;;;;;14.03;nan;101355.81;691149;28;137659;-61
2022/10/03 01:39:12;;;;;;;888.78;826.78;;;;;;;14.04;nan;101362.06;691402;28;138410;-59
2022/10/03 01:39:40;;;;;;;880.80;818.95;;;;;;;14.00;nan;101353.47;688809;28;136092;-60
2022/10/03 01:40:10;;;;;;;886.22;824.25;;;;;;;14.03;nan;101371.28;686967;28;137928;-60
2022/10/03 01:40:35;;;;;;;887.70;825.80;;;;;;;14.03;nan;101360.41;686263;28;137464;-61
2022/10/03 01:40:59;;;;;;;900.85;838.38;;;;;;;14.02;nan;101362.25;687844;28;91951;-60
2022/10/03 01:41:27;;;;;;;915.97;853.05;;;;;;;14.00;nan;101369.75;687081;28;113542;-61
2022/10/03 01:41:57;;;;;;;913.90;851.15;;;;;;;13.99;nan;101362.63;686664;28;138545;-61
2022/10/03 01:42:31;;;;;;;934.15;870.63;;;;;;;13.98;nan;101363.66;687554;28;156493;-61
2022/10/03 01:43:01;;;;;;;938.60;875.10;;;;;;;13.98;nan;101366.38;688935;28;137392;-60
2022/10/03 01:43:31;;;;;;;942.63;878.97;;;;;;;13.98;nan;101358.25;691257;28;137145;-59
2022/10/03 01:43:59;;;;;;;941.28;877.67;;;;;;;13.96;nan;101356.72;691398;28;138136;-61
2022/10/03 01:44:23;;;;;;;938.05;874.42;;;;;;;13.97;nan;101370.13;691268;28;137728;-61
2022/10/03 01:45:00;;;;;;;932.00;868.60;;;;;;;13.98;nan;101358.25;693069;28;92137;-61
2022/10/03 01:45:28;;;;;;;934.40;870.92;;;;;;;14.00;nan;101369.75;686826;28;137520;-61
2022/10/03 01:46:01;;;;;;;894.45;832.13;;;;;;;13.97;nan;101363.84;688393;28;137767;-59
2022/10/03 01:46:27;;;;;;;887.28;825.15;;;;;;;13.98;nan;101371.81;688796;28;137589;-60
2022/10/03 01:46:52;;;;;;;890.53;828.40;;;;;;;13.97;nan;101369.28;688769;28;138129;-61
2022/10/03 01:47:21;;;;;;;892.13;829.53;;;;;;;13.96;nan;101371.13;688122;28;135029;-61
2022/10/03 01:47:48;;;;;;;883.78;821.72;;;;;;;13.95;nan;101365.88;688084;28;160767;-61
2022/10/03 01:48:14;;;;;;;908.38;845.72;;;;;;;13.96;nan;101371.13;689231;28;136293;-59
2022/10/03 01:48:41;;;;;;;923.85;860.65;;;;;;;13.95;nan;101369.47;688848;28;137828;-60
2022/10/03 01:49:08;;;;;;;908.90;846.15;;;;;;;13.96;nan;101371.13;688956;28;137771;-61
2022/10/03 01:49:36;;;;;;;904.25;841.75;;;;;;;13.97;nan;101370.13;689951;28;110093;-60
2022/10/03 01:50:02;;;;;;;893.65;831.45;;;;;;;13.96;nan;101362.16;688990;28;138198;-60
2022/10/03 01:50:30;;;;;;;897.50;835.22;;;;;;;13.97;nan;101370.13;688790;28;138796;-61
2022/10/03 01:50:59;;;;;;;915.45;852.60;;;;;;;13.99;nan;101375.38;688133;28;160993;-60
2022/10/03 01:51:23;;;;;;;920.47;857.38;;;;;;;13.99;nan;101373.47;688745;28;137805;-61
2022/10/03 01:51:51;;;;;;;920.13;857.05;;;;;;;14.00;nan;101372.47;690409;28;92124;-61
2022/10/03 01:52:20;;;;;;;908.28;845.53;;;;;;;14.01;nan;101373.31;687429;28;156818;-61
2022/10/03 01:52:48;;;;;;;883.13;821.25;;;;;;;14.03;nan;101369.38;688906;28;137990;-62
2022/10/03 01:53:13;;;;;;;891.22;829.05;;;;;;;14.04;nan;101371.09;688906;28;136382;-61
2022/10/03 01:53:44;;;;;;;901.28;838.72;;;;;;;13.99;nan;101368.06;689496;28;115156;-59
2022/10/03 01:54:15;;;;;;;918.25;855.25;;;;;;;14.04;nan;101378.38;688824;28;137827;-61
2022/10/03 01:54:39;;;;;;;888.42;826.40;;;;;;;14.04;nan;101368.38;688807;28;137202;-61
2022/10/03 01:55:05;;;;;;;882.38;820.45;;;;;;;14.04;nan;101362.06;689398;28;92154;-61
2022/10/03 01:55:35;;;;;;;892.72;830.63;;;;;;;14.05;nan;101367.31;688833;28;137951;-61
2022/10/03 01:56:03;;;;;;;876.85;815.38;;;;;;;14.05;nan;101372.75;688805;28;137905;-61
2022/10/03 01:56:30;;;;;;;890.42;828.47;;;;;;;14.06;nan;101369.03;688834;28;136283;-62
2022/10/03 01:56:56;;;;;;;901.60;839.30;;;;;;;14.06;nan;101371.72;688179;28;138025;-59
2022/10/03 01:57:24;;;;;;;923.25;859.75;;;;;;;14.09;nan;101375.09;687509;28;161299;-61
2022/10/03 01:57:49;;;;;;;926.05;862.83;;;;;;;14.09;nan;101370.53;688921;28;136200;-61
2022/10/03 01:58:12;;;;;;;939.45;875.85;;;;;;;14.08;nan;101371.56;690258;28;91045;-61
2022/10/03 01:58:45;;;;;;;929.45;866.05;;;;;;;14.10;nan;101368.66;690652;28;70250;-62
2022/10/03 01:59:12;;;;;;;880.33;818.42;;;;;;;14.10;nan;101376.78;687448;28;158912;-61
2022/10/03 01:59:41;;;;;;;888.92;826.67;;;;;;;14.08;nan;101373.44;687698;28;137911;-61
2022/10/03 02:00:05;;;;;;;879.85;818.10;;;;;;;14.09;nan;101370.53;685957;28;137922;-61
2022/10/03 02:00:37;;;;;;;912.35;849.60;;;;;;;14.08;nan;101368.84;686166;28;137690;-61
2022/10/03 02:01:03;;;;;;;924.95;861.65;;;;;;;14.09;nan;101375.09;686942;28;115090;-61
2022/10/03 02:01:33;;;;;;;922.63;859.47;;;;;;;14.06;nan;101376.34;688086;28;138152;-61
2022/10/03 02:01:57;;;;;;;887.72;825.67;;;;;;;14.06;nan;101370.91;688101;28;137585;-61
2022/10/03 02:02:26;;;;;;;887.33;825.17;;;;;;;14.06;nan;101371.72;690484;28;93201;-62
2022/10/03 02:02:51;;;;;;;893.65;831.30;;;;;;;14.06;nan;101379.88;688609;28;137902;-61
2022/10/03 02:03:19;;;;;;;915.20;852.35;;;;;;;14.03;nan;101371.28;689784;28;113683;-61
2022/10/03 02:03:46;;;;;;;901.50;838.97;;;;;;;14.04;nan;101376.50;691947;28;62136;-61
2022/10/03 02:04:13;;;;;;;881.78;819.97;;;;;;;14.04;nan;101372.94;688878;28;138238;-61
2022/10/03 02:04:41;;;;;;;885.10;823.15;;;;;;;14.03;nan;101372.09;688802;28;136288;-62
2022/10/03 02:05:08;;;;;;;877.33;815.55;;;;;;;14.03;nan;101363.97;688861;28;135973;-61
2022/10/03 02:05:38;;;;;;;876.83;815.13;;;;;;;14.04;nan;101368.38;688889;28;138100;-61
2022/10/03 02:06:03;;;;;;;900.67;838.30;;;;;;;14.05;nan;101378.19;688073;28;160811;-62
2022/10/03 02:06:31;;;;;;;906.25;843.65;;;;;;;14.05;nan;101374.63;689740;28;115989;-61
2022/10/03 02:06:57;;;;;;;872.88;811.20;;;;;;;14.05;nan;101377.34;688251;28;137505;-62
2022/10/03 02:07:25;;;;;;;866.72;805.03;;;;;;;14.03;nan;101369.38;688004;28;160991;-61
2022/10/03 02:07:51;;;;;;;905.70;843.15;;;;;;;14.05;nan;101366.50;688728;28;137955;-61
2022/10/03 02:08:22;;;;;;;919.47;856.47;;;;;;;14.05;nan;101375.47;689097;28;137892;-61
2022/10/03 02:08:51;;;;;;;908.17;845.47;;;;;;;14.07;nan;101372.56;688646;28;136003;-61
2022/10/03 02:09:23;;;;;;;876.03;814.42;;;;;;;14.07;nan;101372.56;688948;28;137842;-61
2022/10/03 02:09:52;;;;;;;883.03;821.22;;;;;;;14.08;nan;101376.97;686217;28;136881;-61
2022/10/03 02:10:23;;;;;;;888.33;826.30;;;;;;;14.07;nan;101372.56;686309;28;137734;-61
2022/10/03 02:10:48;;;;;;;883.85;822.05;;;;;;;14.09;nan;101380.53;686270;28;137516;-61
2022/10/03 02:11:11;;;;;;;889.00;826.83;;;;;;;14.08;nan;101376.97;689265;28;116063;-61
2022/10/03 02:11:37;;;;;;;881.40;819.42;;;;;;;14.09;nan;101373.25;691011;28;69424;-59
2022/10/03 02:12:05;;;;;;;889.17;827.10;;;;;;;14.08;nan;101370.72;689389;28;136422;-61
2022/10/03 02:12:33;;;;;;;880.42;818.63;;;;;;;14.08;nan;101374.25;691529;28;137483;-61
2022/10/03 02:13:05;;;;;;;885.38;823.53;;;;;;;14.08;nan;101376.16;694297;28;61590;-61
2022/10/03 02:13:36;;;;;;;890.33;828.20;;;;;;;14.09;nan;101377.81;691347;28;136064;-61
2022/10/03 02:13:59;;;;;;;895.92;833.65;;;;;;;14.09;nan;101378.69;691583;28;136071;-60
2022/10/03 02:14:28;;;;;;;890.65;828.58;;;;;;;14.09;nan;101380.53;693900;28;69452;-60
2022/10/03 02:14:54;;;;;;;925.72;862.67;;;;;;;14.07;nan;101378.00;691534;28;138809;-61
2022/10/03 02:15:19;;;;;;;918.22;855.22;;;;;;;14.08;nan;101370.72;691496;28;137824;-60
2022/10/03 02:15:48;;;;;;;887.50;825.55;;;;;;;14.07;nan;101383.44;692422;28;115166;-61
2022/10/03 02:16:14;;;;;;;903.88;841.47;;;;;;;14.07;nan;101378.00;691901;28;136034;-61
2022/10/03 02:16:40;;;;;;;899.17;836.78;;;;;;;14.07;nan;101380.72;691623;28;137811;-61
2022/10/03 02:17:06;;;;;;;897.10;834.47;;;;;;;14.04;nan;101381.94;664873;28;138769;-61
2022/10/03 02:17:44;;;;;;;894.75;832.33;;;;;;;14.09;nan;101391.41;691120;28;138695;-61
2022/10/03 02:18:13;;;;;;;927.90;864.60;;;;;;;14.09;nan;101383.25;691422;28;138669;-60
2022/10/03 02:18:45;;;;;;;926.90;863.58;;;;;;;14.11;nan;101378.50;694015;28;61216;-62
2022/10/03 02:19:11;;;;;;;892.72;830.50;;;;;;;14.11;nan;101387.47;691525;28;137660;-61
2022/10/03 02:19:42;;;;;;;893.05;830.83;;;;;;;14.11;nan;101389.38;691111;28;138194;-61
2022/10/03 02:20:07;;;;;;;881.25;819.33;;;;;;;14.10;nan;101388.50;691385;28;137308;-61
2022/10/03 02:20:34;;;;;;;872.88;811.30;;;;;;;14.11;nan;101392.06;692152;28;115616;-62
2022/10/03 02:21:07;;;;;;;887.33;825.08;;;;;;;14.10;nan;101393.94;691224;28;135841;-61
2022/10/03 02:21:31;;;;;;;896.30;833.88;;;;;;;14.11;nan;101383.94;691156;28;137923;-61
2022/10/03 02:21:53;;;;;;;920.22;857.13;;;;;;;14.11;nan;101389.38;683824;28;82956;-61
2022/10/03 02:22:27;;;;;;;921.28;858.17;;;;;;;14.11;nan;101386.66;695628;28;46297;-61
2022/10/03 02:22:52;;;;;;;893.50;831.45;;;;;;;14.11;nan;101383.94;694051;28;137582;-61
2022/10/03 02:23:35;;;;;;;885.88;824.10;;;;;;;14.12;nan;101382.88;694878;28;115169;-62
2022/10/03 02:24:16;;;;;;;892.17;830.13;;;;;;;14.11;nan;101384.75;693073;28;136300;-61
2022/10/03 02:24:45;;;;;;;886.50;824.55;;;;;;;14.10;nan;101391.22;691296;28;137783;-61
2022/10/03 02:25:23;;;;;;;890.22;828.13;;;;;;;14.10;nan;101393.94;691364;28;138258;-61
2022/10/03 02:25:53;;;;;;;929.35;865.92;;;;;;;14.10;nan;101393.94;692458;28;137976;-62
2022/10/03 02:26:45;;;;;;;922.50;859.20;;;;;;;14.11;nan;101390.19;693969;28;136161;-61
2022/10/03 02:27:37;;;;;;;900.15;837.20;;;;;;;14.12;nan;101396.47;687722;28;136031;-61